Time;durP1;ratioP1;P1;durP2;ratioP2;P2;SDS_P1;SDS_P2;PMS_P1;PMS_P2;Temp;Humidity;BMP_temperature;BMP_pressure;BME280_temperature;BME280_humidity;BME280_pressure;Samples;Min_cycle;Max_cycle;Signal;HPM_P1;HPM_P2
2022/05/12 00:04:52;;;;;;;24.23;11.80;;;;;;;14.84;64.38;98766.71;4222919;83;21066;-79
2022/05/12 00:10:54;;;;;;;64.12;20.52;;;;;;;14.70;64.82;98758.58;4226529;83;21676;-79
2022/05/12 00:16:57;;;;;;;15.78;8.78;;;;;;;14.63;65.21;98761.38;4244025;82;21033;-80
2022/05/12 00:23:13;;;;;;;16.12;8.50;;;;;;;14.54;65.55;98750.06;4235231;83;21042;-79
2022/05/12 00:29:15;;;;;;;25.70;12.88;;;;;;;14.47;65.84;98743.25;4214928;82;21061;-79
2022/05/12 00:35:17;;;;;;;11.22;7.80;;;;;;;14.42;66.08;98736.80;4231176;82;22370;-80
2022/05/12 00:41:19;;;;;;;11.28;7.10;;;;;;;14.32;66.44;98739.03;4237755;83;21031;-80
2022/05/12 00:47:20;;;;;;;7.60;5.92;;;;;;;14.20;66.59;98737.53;4239511;82;21114;-79
2022/05/12 00:53:22;;;;;;;8.83;6.00;;;;;;;14.13;66.83;98730.10;4238572;83;21109;-79
2022/05/12 00:59:32;;;;;;;7.42;5.67;;;;;;;14.05;67.30;98730.55;4135548;84;21046;-80
2022/05/12 01:05:33;;;;;;;10.25;5.60;;;;;;;14.01;67.60;98725.09;4236242;82;21062;-80
2022/05/12 01:11:36;;;;;;;7.70;5.72;;;;;;;13.92;67.37;98732.98;4231694;83;20987;-79
2022/05/12 01:17:37;;;;;;;7.60;4.65;;;;;;;13.85;67.57;98729.50;4241741;82;21049;-79
2022/05/12 01:23:39;;;;;;;39.67;16.23;;;;;;;13.82;67.69;98728.94;4234112;82;21986;-79
2022/05/12 01:29:40;;;;;;;41.50;16.30;;;;;;;13.91;68.05;98725.14;4237633;83;21086;-79
2022/05/12 01:35:42;;;;;;;15.65;9.35;;;;;;;13.88;67.97;98717.11;4227949;83;21005;-79
2022/05/12 01:41:43;;;;;;;10.38;5.70;;;;;;;13.89;68.03;98711.78;4239852;83;21601;-79
2022/05/12 01:47:45;;;;;;;10.43;6.00;;;;;;;13.87;68.24;98710.63;4234133;82;21527;-79
2022/05/12 01:53:46;;;;;;;6.83;5.45;;;;;;;13.82;68.41;98700.05;4129716;85;21066;-79
2022/05/12 01:59:47;;;;;;;6.67;5.08;;;;;;;13.78;68.27;98697.92;4131383;85;20999;-79
2022/05/12 02:05:50;;;;;;;7.55;5.80;;;;;;;13.70;68.51;98703.28;4221174;83;21068;-79
2022/05/12 02:11:51;;;;;;;7.08;4.58;;;;;;;13.65;68.51;98698.98;4225219;83;21064;-79
2022/05/12 02:17:52;;;;;;;7.50;4.60;;;;;;;13.61;68.77;98698.79;4224154;83;21010;-79
2022/05/12 02:23:54;;;;;;;7.42;4.92;;;;;;;13.60;68.91;98698.61;4160206;84;20988;-79
2022/05/12 02:29:55;;;;;;;6.42;4.80;;;;;;;13.61;69.00;98696.04;4227025;83;21515;-78
2022/05/12 02:35:57;;;;;;;5.22;4.72;;;;;;;13.58;69.12;98692.72;4224562;83;21065;-79
2022/05/12 02:41:59;;;;;;;7.67;5.15;;;;;;;13.58;68.92;98698.22;4215025;83;21100;-79
2022/05/12 02:48:00;;;;;;;7.12;4.67;;;;;;;13.59;69.04;98700.56;4160888;84;21079;-80
2022/05/12 02:54:03;;;;;;;6.47;4.92;;;;;;;13.73;68.93;98696.35;4221503;83;20971;-78
2022/05/12 03:00:09;;;;;;;12.25;5.60;;;;;;;13.83;69.21;98691.39;4221606;83;21032;-80
2022/05/12 03:06:10;;;;;;;9.78;4.90;;;;;;;13.86;69.49;98689.78;4235343;82;21049;-81
2022/05/12 03:12:12;;;;;;;10.05;4.30;;;;;;;13.99;69.36;98689.51;4156955;84;21090;-79
2022/05/12 03:18:13;;;;;;;7.12;3.98;;;;;;;14.16;69.07;98691.34;4208872;83;21026;-79
2022/05/12 03:24:17;;;;;;;9.58;4.30;;;;;;;14.56;68.53;98686.50;4206412;82;21035;-80
2022/05/12 03:30:22;;;;;;;4.90;4.30;;;;;;;14.99;67.73;98688.20;4211921;83;21061;-79
2022/05/12 03:36:23;;;;;;;5.40;3.87;;;;;;;15.47;66.98;98684.08;4204606;83;21499;-81
2022/05/12 03:42:25;;;;;;;6.72;3.75;;;;;;;15.94;66.31;98684.21;4213246;83;21031;-79
2022/05/12 03:48:28;;;;;;;5.53;3.75;;;;;;;16.03;66.17;98688.02;4130571;82;71641;-80
2022/05/12 03:54:29;;;;;;;15.68;4.97;;;;;;;16.16;66.05;98681.30;4075359;86;21070;-79
2022/05/12 04:00:32;;;;;;;6.30;3.80;;;;;;;16.57;65.32;98675.67;3999341;87;21112;-80
2022/05/12 04:06:35;;;;;;;6.12;3.75;;;;;;;16.94;64.77;98675.36;3952216;87;21068;-78
2022/05/12 04:12:36;;;;;;;6.97;4.10;;;;;;;17.36;64.06;98678.48;4049359;85;21106;-81
2022/05/12 04:18:38;;;;;;;8.93;4.08;;;;;;;17.92;61.69;98684.97;4046309;85;22224;-80
2022/05/12 04:24:40;;;;;;;5.70;4.05;;;;;;;18.14;61.74;98674.16;4047820;86;21047;-81
2022/05/12 04:30:44;;;;;;;6.78;3.90;;;;;;;18.50;60.20;98676.25;4047669;86;21106;-79
2022/05/12 04:36:46;;;;;;;4.50;3.47;;;;;;;18.79;60.14;98672.13;4048193;86;21007;-80
2022/05/12 04:42:50;;;;;;;3.92;3.40;;;;;;;18.98;59.58;98668.44;4050287;86;21761;-80
2022/05/12 04:48:53;;;;;;;7.78;4.17;;;;;;;19.29;59.02;98667.58;4045809;86;21055;-80
2022/05/12 04:54:56;;;;;;;6.08;4.15;;;;;;;19.50;57.26;98680.03;4055412;86;21024;-80
2022/05/12 05:00:57;;;;;;;9.35;3.83;;;;;;;19.75;57.54;98684.23;4047004;86;21139;-80
2022/05/12 05:06:59;;;;;;;4.53;3.55;;;;;;;19.77;56.85;98681.19;4051600;86;21150;-80
2022/05/12 05:13:01;;;;;;;8.20;4.20;;;;;;;20.03;56.40;98677.78;4043403;86;21043;-81
2022/05/12 05:19:02;;;;;;;4.72;3.80;;;;;;;20.20;56.73;98684.83;4052417;86;21047;-81
2022/05/12 05:25:05;;;;;;;9.85;3.95;;;;;;;20.47;56.12;98686.49;4047521;86;21027;-80
2022/05/12 05:31:06;;;;;;;6.40;4.05;;;;;;;20.65;56.23;98674.78;4050241;86;21036;-79
2022/05/12 05:37:07;;;;;;;7.72;4.00;;;;;;;20.93;54.53;98680.73;4048141;86;21055;-80
2022/05/12 05:43:09;;;;;;;5.33;3.62;;;;;;;21.15;54.70;98680.96;4055828;86;20994;-80
2022/05/12 05:49:10;;;;;;;6.95;3.90;;;;;;;21.15;54.85;98689.91;4051843;86;21926;-80
2022/05/12 05:55:13;;;;;;;5.62;3.52;;;;;;;21.27;54.57;98700.20;4051215;86;21043;-80
2022/05/12 06:01:15;;;;;;;11.03;3.95;;;;;;;21.54;54.21;98692.03;4049661;86;21048;-79
2022/05/12 06:07:17;;;;;;;9.73;3.80;;;;;;;21.77;54.21;98699.92;4048108;86;21580;-80
2022/05/12 06:13:19;;;;;;;10.88;3.60;;;;;;;21.94;53.96;98701.88;4049599;86;21490;-80
2022/05/12 06:19:20;;;;;;;6.90;3.77;;;;;;;22.16;53.71;98699.17;4052013;86;21008;-81
2022/05/12 06:25:25;;;;;;;9.60;3.92;;;;;;;22.39;54.30;98704.22;4045845;86;22349;-80
2022/05/12 06:31:30;;;;;;;5.95;3.50;;;;;;;22.79;53.61;98696.56;4052268;86;21059;-83
2022/05/12 06:37:32;;;;;;;5.80;3.42;;;;;;;23.05;53.06;98699.20;4048005;86;21079;-79
2022/05/12 06:43:34;;;;;;;7.55;3.10;;;;;;;23.29;52.55;98695.84;4051331;86;21082;-80
2022/05/12 06:49:37;;;;;;;4.80;3.17;;;;;;;23.47;52.01;98701.39;4050504;86;21111;-81
2022/05/12 06:55:38;;;;;;;5.70;3.50;;;;;;;23.65;51.46;98698.57;4067399;85;21063;-80
2022/05/12 07:01:39;;;;;;;7.55;3.47;;;;;;;23.85;51.16;98684.20;4049416;86;21566;-81
2022/05/12 07:07:43;;;;;;;8.13;3.47;;;;;;;24.05;51.13;98689.30;4078699;86;21051;-80
2022/05/12 07:13:46;;;;;;;5.67;2.72;;;;;;;24.42;49.51;98696.25;4081975;86;21054;-80
2022/05/12 07:19:48;;;;;;;8.40;2.92;;;;;;;24.87;49.71;98701.58;4077689;86;21054;-81
2022/05/12 07:32:10;;;;;;;14.50;3.30;;;;;;;25.54;47.09;98707.25;4070045;85;21582;-80
2022/05/12 07:38:11;;;;;;;5.70;2.65;;;;;;;26.14;46.48;98703.34;4097098;85;21038;-81
2022/05/12 07:44:14;;;;;;;7.50;2.58;;;;;;;26.70;44.78;98691.55;4099004;85;21090;-80
2022/05/12 07:50:15;;;;;;;5.12;2.30;;;;;;;27.29;44.79;98690.77;4152951;85;21001;-81
2022/05/12 07:56:22;;;;;;;3.45;2.47;;;;;;;27.80;43.59;98679.38;4094091;85;21145;-81
2022/05/12 08:02:23;;;;;;;3.77;2.45;;;;;;;28.03;41.81;98676.91;4099058;85;21011;-81
2022/05/12 08:08:28;;;;;;;7.00;2.47;;;;;;;28.13;40.69;98684.65;4098933;85;21098;-81
2022/05/12 08:14:30;;;;;;;4.13;2.67;;;;;;;28.29;40.97;98692.45;4093262;85;21085;-81
2022/05/12 08:20:31;;;;;;;5.55;2.75;;;;;;;28.34;40.54;98700.16;4082073;86;21097;-82
2022/05/12 08:26:33;;;;;;;8.95;3.05;;;;;;;28.32;40.30;98709.73;4082808;86;21035;-80
2022/05/12 08:32:35;;;;;;;9.48;3.40;;;;;;;28.25;39.83;98703.17;4083020;86;20991;-82
2022/05/12 08:38:40;;;;;;;5.22;2.80;;;;;;;28.20;39.24;98709.53;4081461;86;21102;-82
2022/05/12 08:44:41;;;;;;;22.27;4.00;;;;;;;28.23;39.30;98709.16;4069828;86;21094;-81
2022/05/12 08:50:47;;;;;;;18.85;3.33;;;;;;;28.48;38.74;98713.34;4076928;85;21670;-83
2022/05/12 08:56:58;;;;;;;16.17;4.47;;;;;;;28.21;38.79;98728.58;4054700;86;21668;-81
2022/05/12 09:03:55;;;;;;;10.72;3.08;;;;;;;28.17;38.63;98726.02;4084632;84;21625;-82
2022/05/12 09:10:08;;;;;;;10.45;3.02;;;;;;;27.94;38.99;98716.48;4049652;86;21580;-82
2022/05/12 09:16:21;;;;;;;12.80;2.77;;;;;;;27.94;38.95;98728.48;4054408;86;21035;-81
2022/05/12 09:22:29;;;;;;;9.60;3.08;;;;;;;28.65;40.02;98712.02;4050554;86;21078;-82
2022/05/12 09:28:35;;;;;;;10.90;2.80;;;;;;;28.94;39.49;98719.46;4050944;86;21070;-81
2022/05/12 09:34:46;;;;;;;8.15;2.65;;;;;;;28.80;37.23;98724.64;4052295;86;20988;-82
2022/05/12 09:40:47;;;;;;;13.08;3.12;;;;;;;28.07;38.57;98724.64;4052528;86;21547;-82
2022/05/12 09:47:08;;;;;;;9.78;2.30;;;;;;;27.67;39.86;98731.80;4053055;86;21044;-81
2022/05/12 09:53:12;;;;;;;15.28;2.77;;;;;;;27.75;39.05;98738.53;4052559;85;21043;-83
2022/05/12 09:59:19;;;;;;;9.48;2.65;;;;;;;28.18;38.99;98738.80;4051735;86;21004;-80
2022/05/12 10:12:09;;;;;;;7.87;2.12;;;;;;;27.33;39.27;98741.91;4064380;86;21581;-82
2022/05/12 10:18:42;;;;;;;10.10;3.25;;;;;;;27.21;39.07;98734.59;4075701;86;21040;-82
2022/05/12 10:24:57;;;;;;;9.78;2.80;;;;;;;26.84;38.68;98742.05;4064748;86;21032;-81
2022/05/12 10:31:36;;;;;;;11.85;3.10;;;;;;;27.29;38.60;98746.98;4071632;85;21024;-81
2022/05/12 10:38:11;;;;;;;10.25;4.03;;;;;;;27.42;38.90;98751.58;4070369;86;21953;-81
2022/05/12 10:44:27;;;;;;;8.33;3.50;;;;;;;27.29;37.89;98741.98;4073993;86;22028;-81
2022/05/12 10:51:03;;;;;;;8.28;3.25;;;;;;;28.19;38.17;98757.22;4074309;85;21201;-82
2022/05/12 10:57:32;;;;;;;9.57;2.93;;;;;;;29.64;36.48;98737.84;4070525;85;21583;-83
2022/05/12 11:03:45;;;;;;;15.75;2.90;;;;;;;30.36;35.08;98747.78;4062075;86;21607;-82
2022/05/12 11:09:51;;;;;;;16.37;3.40;;;;;;;31.43;34.61;98748.53;4036050;86;21102;-83
2022/05/12 11:16:01;;;;;;;12.40;2.83;;;;;;;32.25;32.95;98760.63;4064564;86;21715;-82
2022/05/12 11:22:37;;;;;;;13.68;2.83;;;;;;;32.55;31.93;98747.89;4067183;86;21060;-83
2022/05/12 11:35:28;;;;;;;8.40;2.65;;;;;;;33.12;30.42;98753.98;4083394;86;21081;-83
2022/05/12 11:41:40;;;;;;;9.35;2.55;;;;;;;32.73;31.74;98755.70;4082648;86;21130;-83
2022/05/12 11:48:02;;;;;;;8.33;2.62;;;;;;;32.46;29.94;98752.48;4074300;86;21406;-83
2022/05/12 11:54:10;;;;;;;6.70;3.10;;;;;;;32.63;30.54;98740.34;4073669;86;21064;-83
2022/05/12 12:00:33;;;;;;;9.83;3.17;;;;;;;32.43;30.80;98752.91;4076058;86;21139;-82
2022/05/12 12:06:43;;;;;;;8.18;2.83;;;;;;;32.12;31.09;98753.41;4084230;85;21039;-83
2022/05/12 12:12:54;;;;;;;14.95;2.95;;;;;;;31.54;31.96;98751.97;4085481;85;21832;-83
2022/05/12 12:19:03;;;;;;;17.73;3.52;;;;;;;30.72;32.33;98750.94;4079328;85;21139;-80
2022/05/12 12:25:16;;;;;;;7.30;2.75;;;;;;;29.95;33.19;98756.59;4091423;86;21072;-83
2022/05/12 12:31:44;;;;;;;6.97;2.35;;;;;;;29.16;33.19;98766.75;4084350;86;21135;-82
2022/05/12 12:37:50;;;;;;;6.37;2.25;;;;;;;29.00;33.61;98766.75;4019683;86;21023;-82
2022/05/12 12:44:05;;;;;;;7.75;2.37;;;;;;;29.28;33.15;98773.19;4086393;86;21673;-82
2022/05/12 12:50:41;;;;;;;9.80;2.67;;;;;;;29.48;33.51;98758.89;4083344;86;21071;-82
2022/05/12 12:56:42;;;;;;;17.45;2.70;;;;;;;29.28;33.70;98768.95;4078956;86;21798;-84
2022/05/12 13:02:45;;;;;;;8.75;2.37;;;;;;;29.15;33.52;98780.69;4089958;85;21060;-82
2022/05/12 13:08:57;;;;;;;13.90;3.25;;;;;;;29.01;33.61;98787.25;4083834;86;21100;-82
2022/05/12 13:15:01;;;;;;;7.42;2.58;;;;;;;29.02;33.74;98790.19;4068901;86;20996;-83
2022/05/12 13:21:04;;;;;;;8.30;1.92;;;;;;;28.97;34.33;98793.77;4055364;86;21036;-83
2022/05/12 13:27:08;;;;;;;18.50;3.77;;;;;;;29.17;33.96;98772.51;4065542;86;21086;-82
2022/05/12 13:33:26;;;;;;;6.40;2.40;;;;;;;29.22;34.51;98783.67;4067749;86;21644;-82
2022/05/12 13:39:52;;;;;;;5.58;2.42;;;;;;;29.22;34.63;98783.04;4073452;85;21036;-84
2022/05/12 13:46:11;;;;;;;9.10;2.30;;;;;;;29.20;34.10;98777.76;4070105;85;21135;-82
2022/05/12 13:52:24;;;;;;;8.35;2.67;;;;;;;29.26;33.43;98782.15;4073812;84;21060;-81
2022/05/12 13:58:25;;;;;;;8.48;2.45;;;;;;;29.17;33.24;98788.64;4076354;86;21135;-82
2022/05/12 14:04:29;;;;;;;8.05;3.02;;;;;;;28.69;33.76;98792.83;4077075;86;21052;-83
2022/05/12 14:10:35;;;;;;;10.80;3.42;;;;;;;28.09;34.33;98814.96;4060047;86;20996;-83
2022/05/12 14:23:02;;;;;;;10.90;3.35;;;;;;;26.93;36.07;98827.57;4012045;86;22091;-83
2022/05/12 14:29:03;;;;;;;8.63;3.45;;;;;;;26.98;36.19;98826.09;4001376;87;21074;-82
2022/05/12 14:35:06;;;;;;;11.28;2.55;;;;;;;26.96;36.62;98827.21;4070019;86;21071;-83
2022/05/12 14:41:08;;;;;;;6.80;2.83;;;;;;;27.04;37.00;98829.75;4001154;86;21046;-83
2022/05/12 14:47:12;;;;;;;10.32;2.75;;;;;;;27.13;36.76;98833.21;4004848;87;21114;-82
2022/05/12 14:53:16;;;;;;;7.75;2.55;;;;;;;27.02;36.95;98838.67;4006744;87;22113;-83
2022/05/12 14:59:17;;;;;;;11.05;3.12;;;;;;;26.25;37.14;98845.83;3986698;88;22031;-82
2022/05/12 15:05:21;;;;;;;7.58;2.70;;;;;;;25.77;37.75;98858.42;3967300;88;21088;-82
2022/05/12 15:11:22;;;;;;;11.60;2.60;;;;;;;25.51;38.08;98860.20;4044803;86;21060;-83
2022/05/12 15:17:30;;;;;;;11.03;2.58;;;;;;;25.53;38.65;98861.26;4017140;86;21080;-82
2022/05/12 15:23:32;;;;;;;9.70;2.40;;;;;;;25.45;38.88;98874.08;4036638;87;21658;-82
2022/05/12 15:29:34;;;;;;;13.72;2.98;;;;;;;25.36;38.75;98878.97;4031915;86;21019;-83
2022/05/12 15:35:39;;;;;;;11.38;2.20;;;;;;;25.23;39.69;98882.63;4023703;87;21649;-82
2022/05/12 15:41:44;;;;;;;7.62;2.50;;;;;;;25.23;39.69;98882.63;4132214;84;21022;-82
2022/05/12 15:47:49;;;;;;;6.53;1.92;;;;;;;24.93;39.48;98855.70;4097607;85;21543;-81
2022/05/12 15:53:51;;;;;;;9.08;2.00;;;;;;;25.00;39.47;98895.33;4029556;88;21584;-82
2022/05/12 15:59:52;;;;;;;7.28;2.05;;;;;;;24.84;39.57;98890.11;4138783;85;21485;-81
2022/05/12 16:05:53;;;;;;;11.10;1.92;;;;;;;24.72;39.73;98887.52;4129963;85;21036;-82
2022/05/12 16:12:40;;;;;;;7.15;1.85;;;;;;;24.68;39.88;98891.13;4061000;86;21104;-82
2022/05/12 16:18:02;;;;;;;6.08;1.62;;;;;;;24.56;39.85;98887.23;4050597;86;21040;-82
2022/05/12 16:24:05;;;;;;;12.30;1.90;;;;;;;24.44;39.82;98890.39;4051349;85;21043;-82
2022/05/12 16:30:14;;;;;;;8.55;1.95;;;;;;;24.35;39.94;98888.99;4044415;86;21084;-82
2022/05/12 16:36:19;;;;;;;9.35;2.00;;;;;;;24.21;39.86;98895.23;4049025;86;21039;-83
2022/05/12 16:42:24;;;;;;;5.37;1.70;;;;;;;24.04;39.73;98897.45;4033171;86;21144;-81
2022/05/12 16:48:25;;;;;;;11.30;2.22;;;;;;;23.86;40.00;98898.82;4052935;85;21104;-82
2022/05/12 16:54:27;;;;;;;11.53;2.47;;;;;;;23.77;39.94;98907.21;4042418;86;21636;-82
2022/05/12 17:00:30;;;;;;;4.15;1.60;;;;;;;23.58;40.02;98912.02;3941219;83;9999665;-81
2022/05/12 17:06:32;;;;;;;5.75;1.80;;;;;;;23.34;40.31;98921.41;4061366;85;21009;-81
2022/05/12 17:12:33;;;;;;;4.40;1.47;;;;;;;23.11;40.49;98921.34;4094120;85;21036;-81
2022/05/12 17:18:36;;;;;;;8.75;1.70;;;;;;;22.93;40.60;98923.44;4087174;85;21044;-81
2022/05/12 17:24:37;;;;;;;6.03;1.80;;;;;;;22.83;40.83;98935.79;4090731;85;21932;-82
2022/05/12 17:30:40;;;;;;;4.65;1.42;;;;;;;22.74;41.15;98930.17;4088988;84;21600;-81
2022/05/12 17:36:42;;;;;;;6.95;1.82;;;;;;;22.57;41.31;98940.01;4069551;85;21099;-81
2022/05/12 17:42:45;;;;;;;8.93;2.05;;;;;;;22.44;41.67;98958.03;4089214;85;21947;-81
2022/05/12 17:48:46;;;;;;;5.33;1.75;;;;;;;22.31;41.80;98953.12;4088608;85;21080;-81
2022/05/12 17:54:48;;;;;;;8.28;1.55;;;;;;;22.13;42.05;98962.77;4090871;85;21429;-81
2022/05/12 18:00:52;;;;;;;5.90;1.87;;;;;;;21.96;42.09;98966.33;4091571;85;21577;-81
2022/05/12 18:06:53;;;;;;;4.35;1.50;;;;;;;21.79;42.23;98976.70;4127660;85;21017;-81
2022/05/12 18:12:55;;;;;;;6.78;2.12;;;;;;;21.58;42.50;98992.11;4089753;84;21043;-81
2022/05/12 18:18:56;;;;;;;6.37;2.30;;;;;;;21.43;43.00;98998.75;4088893;85;21052;-81
2022/05/12 18:24:58;;;;;;;8.55;2.12;;;;;;;21.28;43.30;99002.45;4088031;85;21500;-80
2022/05/12 18:30:59;;;;;;;7.10;2.47;;;;;;;21.13;44.24;99004.88;4091872;85;22026;-81
2022/05/12 18:37:01;;;;;;;13.22;3.20;;;;;;;20.99;44.97;99009.50;4092424;84;21052;-80
2022/05/12 18:43:02;;;;;;;13.30;2.85;;;;;;;20.73;45.87;99023.78;4089376;84;21472;-80
2022/05/12 18:49:04;;;;;;;10.18;2.05;;;;;;;20.58;46.59;99035.16;4090549;84;21079;-81
2022/05/12 18:55:08;;;;;;;9.63;2.40;;;;;;;20.49;46.07;99048.90;4086902;85;21005;-80
2022/05/12 19:01:10;;;;;;;7.58;2.95;;;;;;;20.35;46.15;99050.69;4087369;85;21016;-80
2022/05/12 19:07:14;;;;;;;12.35;2.45;;;;;;;20.08;47.32;99052.36;4082418;85;22007;-81
2022/05/12 19:13:15;;;;;;;7.72;2.75;;;;;;;19.89;47.36;99062.38;4058477;86;21065;-80
2022/05/12 19:19:17;;;;;;;16.25;3.00;;;;;;;19.46;47.20;99068.01;4052085;86;21068;-80
2022/05/12 19:25:19;;;;;;;9.25;2.30;;;;;;;19.20;47.59;99077.31;4048202;86;21033;-80
2022/05/12 19:44:10;;;;;;;6.95;1.90;;;;;;;18.74;47.33;99097.07;4532637;77;22592;-80
2022/05/12 19:50:14;;;;;;;7.50;2.40;;;;;;;18.61;47.44;99110.63;4468683;78;21058;-81
2022/05/12 19:56:16;;;;;;;8.03;3.10;;;;;;;18.42;47.54;99112.77;4508121;78;21006;-81
2022/05/12 20:02:17;;;;;;;12.65;2.70;;;;;;;18.19;48.08;99114.94;4469380;78;21610;-82
2022/05/12 20:08:18;;;;;;;8.75;2.45;;;;;;;18.02;48.47;99113.85;4476959;78;21613;-81
2022/05/12 20:14:21;;;;;;;8.08;2.75;;;;;;;17.64;49.05;99110.51;4483815;78;21021;-81
2022/05/12 20:20:25;;;;;;;9.53;3.00;;;;;;;17.41;49.47;99115.97;4456746;78;21046;-82
2022/05/12 20:26:27;;;;;;;6.33;2.42;;;;;;;17.15;49.97;99120.86;4469872;78;21866;-81
2022/05/12 20:32:29;;;;;;;8.70;3.17;;;;;;;16.89;50.76;99135.42;4477211;78;20980;-81
2022/05/12 20:38:30;;;;;;;7.47;3.00;;;;;;;16.60;51.31;99137.72;4471676;78;21390;-81
2022/05/12 20:44:33;;;;;;;6.53;3.40;;;;;;;16.44;51.80;99145.80;4477961;78;21975;-81
2022/05/12 20:50:34;;;;;;;9.05;4.08;;;;;;;16.29;52.37;99140.77;4463290;78;21028;-81
2022/05/12 20:56:39;;;;;;;11.18;3.62;;;;;;;16.02;52.83;99145.37;4469302;78;21055;-81
2022/05/12 21:02:40;;;;;;;14.68;3.80;;;;;;;15.89;54.02;99146.45;4468787;78;21559;-81
2022/05/12 21:08:41;;;;;;;12.85;4.15;;;;;;;15.73;54.46;99151.70;4482198;78;21000;-81
2022/05/12 21:14:42;;;;;;;9.10;4.55;;;;;;;15.53;54.66;99158.93;4476439;78;21008;-81
2022/05/12 21:20:49;;;;;;;9.75;4.00;;;;;;;15.26;55.00;99165.55;4489425;78;21019;-81
2022/05/12 21:26:51;;;;;;;11.73;4.00;;;;;;;14.95;55.88;99173.38;4474034;78;20970;-81
2022/05/12 21:32:52;;;;;;;12.18;4.00;;;;;;;14.74;56.36;99172.05;4471530;78;21063;-81
2022/05/12 21:38:53;;;;;;;9.98;4.35;;;;;;;14.68;56.91;99165.95;4477632;78;21027;-81
2022/05/12 21:51:17;;;;;;;12.82;4.28;;;;;;;14.69;57.82;99173.06;4468836;78;21012;-81
2022/05/12 22:03:39;;;;;;;11.20;4.15;;;;;;;14.33;58.66;99169.56;4470891;78;21035;-81
2022/05/12 22:09:40;;;;;;;11.45;4.62;;;;;;;14.18;59.38;99168.78;4473136;78;21088;-80
2022/05/12 22:15:42;;;;;;;16.75;4.25;;;;;;;14.28;60.33;99176.88;4472322;78;21017;-81
2022/05/12 22:21:43;;;;;;;9.85;4.80;;;;;;;14.36;60.10;99178.41;4459005;79;21007;-80
2022/05/12 22:27:44;;;;;;;20.57;6.30;;;;;;;14.16;60.87;99181.34;4473218;78;21770;-80
2022/05/12 22:33:46;;;;;;;12.20;5.00;;;;;;;14.08;60.72;99174.27;4466529;78;21019;-80
2022/05/12 22:39:47;;;;;;;13.88;4.12;;;;;;;14.10;61.50;99171.34;4469066;78;21043;-80
2022/05/12 22:45:48;;;;;;;15.70;5.05;;;;;;;14.00;61.83;99175.47;4431068;80;21063;-81
2022/05/12 22:51:49;;;;;;;7.90;4.50;;;;;;;13.89;62.49;99186.45;4432165;80;21520;-80
2022/05/12 22:57:51;;;;;;;15.75;5.78;;;;;;;13.85;62.93;99191.76;4435941;79;21457;-79
2022/05/12 23:03:52;;;;;;;13.58;5.12;;;;;;;13.86;62.61;99174.06;4430602;80;20987;-80
2022/05/12 23:09:53;;;;;;;13.98;4.53;;;;;;;13.90;63.37;99187.25;4428009;80;21059;-80
2022/05/12 23:15:54;;;;;;;10.50;3.80;;;;;;;13.80;63.50;99188.81;4429675;80;21523;-80
2022/05/12 23:21:56;;;;;;;8.78;3.85;;;;;;;13.56;64.22;99179.91;4430141;79;21093;-80
2022/05/12 23:27:58;;;;;;;7.37;4.12;;;;;;;13.53;64.27;99185.43;4430815;79;21523;-81
2022/05/12 23:33:59;;;;;;;6.92;3.98;;;;;;;13.39;64.87;99182.65;4440548;80;21008;-80
2022/05/12 23:40:00;;;;;;;9.03;4.05;;;;;;;13.56;65.73;99195.66;4438983;78;21047;-80
2022/05/12 23:46:02;;;;;;;9.28;4.65;;;;;;;13.44;65.41;99172.04;4478093;78;20975;-80
2022/05/12 23:52:05;;;;;;;13.28;4.58;;;;;;;13.29;65.58;99155.90;4476658;78;21031;-80
2022/05/12 23:58:09;;;;;;;8.08;4.45;;;;;;;13.13;66.11;99162.31;4463769;78;21012;-81
